createdAt,value
2018-04-10T00:01:52.501Z,40.97
2018-04-10T00:04:20.557Z,44.67
2018-04-10T00:06:48.014Z,43.27
2018-04-10T00:09:15.515Z,46.77
2018-04-10T00:11:43.070Z,42.27
2018-04-10T00:14:10.552Z,44.50
2018-04-10T00:16:38.002Z,44.83
2018-04-10T00:19:05.538Z,43.53
2018-04-10T00:21:33.146Z,43.30
2018-04-10T00:24:01.477Z,41.40
2018-04-10T00:26:29.035Z,44.13
2018-04-10T00:28:56.589Z,41.70
2018-04-10T00:31:24.113Z,40.83
2018-04-10T00:33:51.580Z,42.83
2018-04-10T00:36:19.027Z,41.40
2018-04-10T00:38:46.489Z,40.13
2018-04-10T00:41:13.942Z,40.70
2018-04-10T00:43:41.406Z,42.47
2018-04-10T00:46:08.879Z,42.77
2018-04-10T00:48:36.342Z,41.90
2018-04-10T00:51:03.822Z,42.27
2018-04-10T00:53:37.402Z,42.27
2018-04-10T00:56:06.378Z,41.50
2018-04-10T00:58:33.846Z,40.23
2018-04-10T01:01:01.393Z,42.20
2018-04-10T01:03:28.849Z,43.27
2018-04-10T01:05:56.427Z,42.30
2018-04-10T01:08:23.992Z,40.47
2018-04-10T01:10:51.452Z,41.07
2018-04-10T01:13:19.669Z,39.70
2018-04-10T01:15:47.124Z,42.30
2018-04-10T01:18:14.606Z,42.80
2018-04-10T01:20:42.059Z,41.40
2018-04-10T01:23:09.521Z,42.93
2018-04-10T01:25:36.973Z,40.30
2018-04-10T01:28:04.453Z,41.30
2018-04-10T01:30:31.926Z,45.13
2018-04-10T01:33:00.181Z,43.60
2018-04-10T01:35:27.637Z,43.57
2018-04-10T01:37:55.186Z,40.47
2018-04-10T01:40:22.734Z,45.30
2018-04-10T01:42:50.301Z,45.50
2018-04-10T01:45:17.859Z,43.40
2018-04-10T01:47:45.402Z,44.30
2018-04-10T01:50:12.989Z,43.33
2018-04-10T01:52:41.238Z,43.57
2018-04-10T01:55:08.685Z,43.20
2018-04-10T01:57:36.254Z,43.50
2018-04-10T02:00:03.835Z,44.40
2018-04-10T02:02:31.372Z,44.50
2018-04-10T02:04:58.927Z,45.20
2018-04-10T02:07:26.370Z,45.63
2018-04-10T02:09:53.907Z,45.90
2018-04-10T02:12:21.405Z,43.87
2018-04-10T02:14:48.873Z,45.80
2018-04-10T02:17:16.409Z,44.80
2018-04-10T02:19:44.196Z,48.07
2018-04-10T02:22:11.723Z,46.20
2018-04-10T02:24:39.192Z,44.73
2018-04-10T02:27:06.742Z,46.20
2018-04-10T02:29:34.297Z,43.70
2018-04-10T02:32:01.856Z,47.40
2018-04-10T02:34:29.453Z,46.87
2018-04-10T02:36:57.698Z,42.97
2018-04-10T02:39:25.169Z,45.10
2018-04-10T02:41:52.653Z,45.30
2018-04-10T02:44:20.126Z,44.87
2018-04-10T02:46:47.617Z,44.70
2018-04-10T02:49:15.082Z,45.47
2018-04-10T02:51:42.667Z,45.77
2018-04-10T02:54:11.103Z,48.03
2018-04-10T02:56:38.664Z,45.33
2018-04-10T02:59:06.113Z,44.40
2018-04-10T03:01:33.717Z,45.27
2018-04-10T03:04:01.960Z,44.27
2018-04-10T03:06:29.512Z,47.37
2018-04-10T03:08:57.074Z,45.27
2018-04-10T03:11:24.666Z,45.87
2018-04-10T03:13:52.971Z,43.63
2018-04-10T03:16:20.606Z,45.70
2018-04-10T03:18:48.848Z,45.67
2018-04-10T03:21:16.346Z,46.03
2018-04-10T03:23:44.577Z,43.53
2018-04-10T03:26:12.132Z,43.90
2018-04-10T03:28:39.780Z,45.17
2018-04-10T03:31:07.297Z,43.57
2018-04-10T03:33:35.654Z,43.03
2018-04-10T03:36:03.891Z,45.50
2018-04-10T03:38:31.439Z,45.47
2018-04-10T03:40:59.014Z,46.47
2018-04-10T03:43:26.458Z,45.20
2018-04-10T03:45:54.014Z,45.90
2018-04-10T03:48:21.475Z,46.50
2018-04-10T03:50:49.036Z,45.47
2018-04-10T03:53:16.469Z,44.53
2018-04-10T03:55:43.974Z,45.10
2018-04-10T03:58:11.395Z,44.27
2018-04-10T04:00:39.105Z,43.90
2018-04-10T04:03:07.309Z,44.70
2018-04-10T04:05:34.794Z,42.93
2018-04-10T04:08:02.254Z,43.40
2018-04-10T04:10:29.701Z,45.07
2018-04-10T04:12:57.252Z,44.70
2018-04-10T04:15:24.811Z,46.53
2018-04-10T04:17:52.292Z,43.27
2018-04-10T04:20:31.605Z,45.17
2018-04-10T04:22:59.086Z,44.87
2018-04-10T04:25:27.381Z,41.80
2018-04-10T04:27:55.665Z,45.87
2018-04-10T04:30:23.224Z,45.00
2018-04-10T04:32:50.776Z,46.23
2018-04-10T04:35:19.008Z,45.53
2018-04-10T04:37:47.292Z,46.77
2018-04-10T04:40:14.779Z,45.57
2018-04-10T04:42:43.162Z,46.50
2018-04-10T04:45:10.610Z,44.37
2018-04-10T04:47:38.245Z,46.87
2018-04-10T04:50:05.777Z,46.77
2018-04-10T04:52:33.241Z,46.77
2018-04-10T04:55:00.728Z,45.77
2018-04-10T04:57:28.950Z,44.87
2018-04-10T04:59:56.624Z,45.47
2018-04-10T05:02:24.070Z,47.33
2018-04-10T05:04:51.526Z,47.30
2018-04-10T05:07:19.061Z,46.60
2018-04-10T05:09:46.489Z,48.17
2018-04-10T05:12:15.224Z,47.20
2018-04-10T05:14:42.675Z,48.17
2018-04-10T05:17:10.138Z,49.37
2018-04-10T05:19:37.666Z,49.20
2018-04-10T05:22:05.329Z,48.30
2018-04-10T05:24:32.786Z,47.63
2018-04-10T05:27:00.239Z,45.40
2018-04-10T05:29:27.932Z,46.10
2018-04-10T05:31:55.394Z,47.07
2018-04-10T05:34:22.923Z,45.53
2018-04-10T05:36:50.399Z,45.47
2018-04-10T05:39:17.857Z,45.10
2018-04-10T05:41:45.401Z,46.53
2018-04-10T05:44:12.851Z,44.10
2018-04-10T05:46:40.326Z,45.00
2018-04-10T05:49:07.891Z,43.67
2018-04-10T05:51:35.637Z,44.30
2018-04-10T05:54:03.109Z,42.70
2018-04-10T05:56:30.566Z,41.50
2018-04-10T05:58:58.115Z,42.47
2018-04-10T06:01:25.670Z,41.70
2018-04-10T06:03:53.333Z,43.93
2018-04-10T06:06:20.885Z,41.30
2018-04-10T06:08:48.340Z,41.40
2018-04-10T06:11:15.800Z,39.40
2018-04-10T06:13:43.279Z,40.07
2018-04-10T06:16:10.905Z,38.90
2018-04-10T06:18:38.377Z,40.03
2018-04-10T06:21:05.873Z,38.60
2018-04-10T06:23:33.378Z,40.07
2018-04-10T06:26:00.932Z,38.97
2018-04-10T06:28:28.393Z,39.13
2018-04-10T06:30:55.955Z,35.70
2018-04-10T06:33:23.465Z,39.70
2018-04-10T06:35:51.665Z,36.60
2018-04-10T06:38:19.249Z,36.30
2018-04-10T06:40:46.698Z,37.47
2018-04-10T06:43:14.157Z,36.30
2018-04-10T06:45:41.608Z,38.03
2018-04-10T06:48:09.161Z,36.93
2018-04-10T06:50:36.613Z,37.27
2018-04-10T06:53:04.068Z,36.27
2018-04-10T06:55:31.531Z,35.27
2018-04-10T06:57:59.082Z,35.40
2018-04-10T07:00:26.536Z,34.60
2018-04-10T07:02:54.210Z,35.50
2018-04-10T07:05:21.672Z,35.47
2018-04-10T07:07:49.225Z,33.20
2018-04-10T07:10:16.775Z,34.70
2018-04-10T07:12:44.316Z,33.40
2018-04-10T07:15:11.828Z,31.20
2018-04-10T07:17:39.341Z,34.17
2018-04-10T07:20:06.905Z,31.23
2018-04-10T07:22:34.466Z,32.87
2018-04-10T07:25:01.924Z,33.30
2018-04-10T07:27:29.477Z,31.77
2018-04-10T07:29:56.961Z,29.73
2018-04-10T07:32:25.179Z,29.67
2018-04-10T07:34:52.899Z,29.50
2018-04-10T07:37:21.114Z,29.20
2018-04-10T07:39:48.637Z,28.97
2018-04-10T07:42:16.051Z,29.03
2018-04-10T07:44:43.503Z,27.03
2018-04-10T07:47:11.058Z,26.17
2018-04-10T07:49:38.525Z,24.10
2018-04-10T07:52:06.027Z,24.63
2018-04-10T07:54:33.539Z,22.33
2018-04-10T07:57:01.193Z,22.60
2018-04-10T07:59:28.777Z,22.63
2018-04-10T08:01:57.030Z,25.73
2018-04-10T08:04:24.607Z,24.93
2018-04-10T08:06:53.574Z,22.90
2018-04-10T08:09:21.033Z,22.37
2018-04-10T08:11:48.502Z,20.67
2018-04-10T08:14:15.949Z,22.43
2018-04-10T08:16:43.398Z,21.80
2018-04-10T08:19:10.961Z,20.90
2018-04-10T08:21:38.518Z,19.17
2018-04-10T08:24:06.073Z,20.13
2018-04-10T08:26:33.505Z,20.47
2018-04-10T08:29:01.117Z,22.07
2018-04-10T08:31:29.330Z,19.87
2018-04-10T08:33:56.779Z,21.23
2018-04-10T08:36:24.238Z,20.70
2018-04-10T08:38:51.698Z,19.60
2018-04-10T08:41:19.143Z,17.90
2018-04-10T08:43:46.633Z,15.10
2018-04-10T08:46:14.092Z,14.87
2018-04-10T08:48:41.548Z,16.33
2018-04-10T08:51:09.033Z,15.70
2018-04-10T08:53:37.284Z,17.57
2018-04-10T08:56:04.736Z,15.90
2018-04-10T08:58:32.189Z,17.20
2018-04-10T09:00:59.770Z,16.60
2018-04-10T09:03:28.024Z,16.20
2018-04-10T09:05:55.569Z,16.80
2018-04-10T09:08:23.061Z,15.57
2018-04-10T09:10:50.658Z,15.03
2018-04-10T09:13:18.154Z,14.57
2018-04-10T09:15:47.143Z,15.07
2018-04-10T09:18:14.711Z,13.50
2018-04-10T09:20:42.290Z,13.23
2018-04-10T09:23:10.546Z,12.80
2018-04-10T09:25:37.998Z,11.70
2018-04-10T09:28:05.554Z,11.77
2018-04-10T09:30:33.092Z,11.53
2018-04-10T09:33:00.550Z,12.37
2018-04-10T09:35:28.009Z,12.77
2018-04-10T09:37:55.463Z,12.87
2018-04-10T09:40:23.038Z,11.50
2018-04-10T09:42:50.485Z,13.80
2018-04-10T09:45:17.962Z,12.43
2018-04-10T09:47:45.698Z,12.83
2018-04-10T09:50:13.502Z,12.33
2018-04-10T09:52:41.022Z,10.00
2018-04-10T09:55:08.481Z,9.00
2018-04-10T09:57:35.973Z,9.70
2018-04-10T10:00:04.193Z,9.13
2018-04-10T10:02:31.783Z,9.90
2018-04-10T10:04:59.354Z,8.83
2018-04-10T10:07:27.625Z,8.60
2018-04-10T10:09:55.060Z,8.73
2018-04-10T10:12:22.507Z,9.07
2018-04-10T10:14:50.036Z,8.43
2018-04-10T10:17:18.253Z,8.20
2018-04-10T10:19:45.695Z,9.03
2018-04-10T10:22:13.254Z,8.17
2018-04-10T10:24:40.799Z,8.50
2018-04-10T10:27:08.230Z,7.90
2018-04-10T10:29:35.694Z,8.00
2018-04-10T10:32:03.247Z,7.33
2018-04-10T10:34:30.695Z,6.37
2018-04-10T10:36:58.164Z,6.97
2018-04-10T10:39:25.645Z,7.33
2018-04-10T10:41:53.093Z,5.43
2018-04-10T10:44:20.657Z,5.20
2018-04-10T10:46:48.095Z,5.20
2018-04-10T10:49:15.554Z,3.80
2018-04-10T10:51:43.023Z,5.47
2018-04-10T10:54:10.484Z,4.50
2018-04-10T10:56:37.975Z,4.47
2018-04-10T10:59:06.309Z,5.07
2018-04-10T11:01:33.755Z,4.30
2018-04-10T11:04:01.197Z,4.30
2018-04-10T11:06:28.728Z,3.93
2018-04-10T11:08:56.130Z,4.60
2018-04-10T11:11:23.590Z,3.80
2018-04-10T11:13:51.145Z,3.67
2018-04-10T11:16:18.615Z,2.77
2018-04-10T11:18:46.073Z,2.80
2018-04-10T11:21:13.523Z,2.67
2018-04-10T11:23:40.983Z,3.50
2018-04-10T11:26:08.532Z,4.60
2018-04-10T11:28:35.991Z,4.90
2018-04-10T11:31:03.542Z,5.73
2018-04-10T11:33:31.033Z,5.20
2018-04-10T11:35:59.278Z,4.67
2018-04-10T11:38:26.726Z,4.93
2018-04-10T11:40:54.206Z,3.60
2018-04-10T11:43:21.650Z,4.93
2018-04-10T11:45:49.129Z,5.80
2018-04-10T11:48:17.376Z,4.60
2018-04-10T11:50:44.839Z,5.50
2018-04-10T11:53:12.285Z,5.17
2018-04-10T11:55:39.848Z,4.33
2018-04-10T11:58:07.438Z,4.63
2018-04-10T12:00:35.684Z,4.80
2018-04-10T12:03:03.913Z,4.83
2018-04-10T12:05:31.355Z,5.33
2018-04-10T12:07:58.875Z,5.57
2018-04-10T12:10:26.414Z,4.33
2018-04-10T12:12:53.865Z,5.00
2018-04-10T12:15:21.317Z,4.90
2018-04-10T12:17:48.798Z,5.57
2018-04-10T12:20:16.336Z,4.50
2018-04-10T12:22:43.799Z,5.17
2018-04-10T12:25:11.275Z,5.23
2018-04-10T12:27:38.721Z,5.40
2018-04-10T12:30:06.276Z,4.80
2018-04-10T12:32:33.832Z,5.50
2018-04-10T12:35:01.413Z,5.73
2018-04-10T12:37:29.636Z,5.33
2018-04-10T12:39:57.278Z,6.40
2018-04-10T12:42:24.764Z,5.80
2018-04-10T12:44:52.201Z,4.20
2018-04-10T12:47:19.678Z,5.10
2018-04-10T12:49:47.129Z,6.00
2018-04-10T12:52:14.605Z,6.90
2018-04-10T12:54:42.035Z,5.83
2018-04-10T12:57:09.508Z,6.30
2018-04-10T12:59:37.070Z,5.60
2018-04-10T13:02:04.533Z,6.00
2018-04-10T13:04:32.087Z,6.37
2018-04-10T13:06:59.588Z,6.10
2018-04-10T13:09:28.360Z,6.10
2018-04-10T13:11:56.632Z,6.43
2018-04-10T13:14:24.969Z,7.43
2018-04-10T13:16:52.532Z,7.63
2018-04-10T13:19:20.026Z,6.73
2018-04-10T13:21:48.333Z,7.50
2018-04-10T13:24:15.849Z,7.33
2018-04-10T13:26:43.386Z,8.10
2018-04-10T13:29:10.932Z,8.10
2018-04-10T13:31:38.601Z,7.60
2018-04-10T13:34:06.086Z,8.40
2018-04-10T13:36:34.317Z,8.27
2018-04-10T13:39:01.912Z,8.30
2018-04-10T13:41:30.096Z,8.40
2018-04-10T13:43:58.373Z,8.47
2018-04-10T13:46:26.760Z,8.37
2018-04-10T13:48:54.336Z,7.70
2018-04-10T13:51:21.878Z,8.10
2018-04-10T13:53:49.330Z,9.30
2018-04-10T13:56:16.785Z,8.23
2018-04-10T13:58:44.290Z,9.70
2018-04-10T14:01:11.733Z,10.57
2018-04-10T14:03:39.189Z,9.80
2018-04-10T14:06:06.675Z,11.00
2018-04-10T14:08:34.130Z,11.10
2018-04-10T14:11:01.595Z,12.00
2018-04-10T14:13:29.833Z,11.17
2018-04-10T14:15:57.302Z,10.40
2018-04-10T14:18:24.891Z,12.17
2018-04-10T14:20:53.244Z,12.03
2018-04-10T14:23:20.700Z,9.70
2018-04-10T14:25:48.350Z,10.70
2018-04-10T14:28:15.798Z,12.07
2018-04-10T14:30:43.381Z,12.07
2018-04-10T14:33:11.745Z,11.43
2018-04-10T14:35:39.234Z,11.83
2018-04-10T14:38:07.493Z,13.30
2018-04-10T14:40:34.957Z,13.43
2018-04-10T14:43:03.191Z,14.00
2018-04-10T14:45:30.663Z,14.90
2018-04-10T14:47:58.236Z,14.10
2018-04-10T14:50:26.462Z,13.40
2018-04-10T14:52:53.916Z,14.47
2018-04-10T14:55:21.526Z,14.10
2018-04-10T14:57:48.976Z,13.37
2018-04-10T15:00:16.507Z,13.67
2018-04-10T15:02:43.977Z,13.07
2018-04-10T15:05:12.934Z,13.60
2018-04-10T15:07:40.389Z,13.87
2018-04-10T15:10:07.874Z,14.10
2018-04-10T15:12:35.426Z,13.10
2018-04-10T15:15:02.926Z,13.10
2018-04-10T15:17:31.151Z,12.43
2018-04-10T15:19:59.353Z,14.27
2018-04-10T15:22:27.569Z,15.80
2018-04-10T15:24:55.054Z,13.70
2018-04-10T15:27:22.496Z,13.90
2018-04-10T15:29:50.185Z,14.53
2018-04-10T15:32:17.731Z,14.50
2018-04-10T15:34:45.289Z,15.33
2018-04-10T15:37:12.848Z,14.90
2018-04-10T15:39:40.501Z,16.27
2018-04-10T15:42:08.353Z,15.30
2018-04-10T15:44:35.854Z,15.20
2018-04-10T15:47:03.372Z,16.20
2018-04-10T15:49:30.838Z,16.27
2018-04-10T15:51:58.298Z,16.90
2018-04-10T15:54:25.967Z,17.77
2018-04-10T15:56:53.552Z,17.60
2018-04-10T15:59:21.072Z,19.27
2018-04-10T16:01:48.646Z,19.70
2018-04-10T16:04:16.290Z,19.97
2018-04-10T16:06:43.900Z,19.90
2018-04-10T16:09:11.362Z,21.13
2018-04-10T16:11:39.691Z,22.70
2018-04-10T16:14:07.939Z,21.47
2018-04-10T16:16:35.509Z,24.67
2018-04-10T16:19:03.087Z,22.10
2018-04-10T16:21:30.789Z,24.20
2018-04-10T16:23:58.521Z,23.80
2018-04-10T16:26:26.047Z,22.90
2018-04-10T16:28:53.512Z,23.93
2018-04-10T16:31:20.989Z,24.20
2018-04-10T16:33:48.630Z,24.60
2018-04-10T16:36:16.195Z,24.27
2018-04-10T16:38:43.802Z,24.87
2018-04-10T16:41:12.120Z,24.70
2018-04-10T16:43:40.423Z,25.70
2018-04-10T16:46:08.665Z,26.10
2018-04-10T16:48:36.140Z,26.73
2018-04-10T16:51:03.581Z,27.80
2018-04-10T16:53:31.513Z,25.60
2018-04-10T16:55:59.209Z,25.20
2018-04-10T16:58:28.365Z,27.20
2018-04-10T17:00:55.868Z,27.37
2018-04-10T17:03:24.073Z,27.37
2018-04-10T17:05:52.308Z,26.50
2018-04-10T17:08:19.854Z,27.60
2018-04-10T17:10:47.351Z,28.67
2018-04-10T17:13:14.874Z,26.77
2018-04-10T17:15:42.629Z,27.93
2018-04-10T17:18:10.093Z,29.30
2018-04-10T17:20:37.551Z,30.20
2018-04-10T17:23:05.025Z,28.57
2018-04-10T17:25:32.474Z,31.60
2018-04-10T17:28:00.029Z,30.30
2018-04-10T17:30:27.486Z,29.87
2018-04-10T17:32:54.933Z,32.37
2018-04-10T17:35:22.441Z,30.73
2018-04-10T17:37:49.889Z,32.33
2018-04-10T17:40:18.122Z,30.00
2018-04-10T17:42:45.689Z,32.77
2018-04-10T17:45:13.237Z,32.70
2018-04-10T17:47:40.686Z,30.80
2018-04-10T17:50:09.159Z,31.40
2018-04-10T17:52:36.636Z,30.47
2018-04-10T17:55:05.613Z,33.00
2018-04-10T17:57:33.193Z,31.07
2018-04-10T18:00:00.722Z,30.40
2018-04-10T18:02:28.381Z,29.93
2018-04-10T18:04:55.847Z,30.47
2018-04-10T18:07:23.402Z,32.03
2018-04-10T18:09:50.964Z,32.00
2018-04-10T18:12:18.405Z,30.37
2018-04-10T18:14:45.978Z,30.10
2018-04-10T18:17:13.611Z,30.03
2018-04-10T18:19:41.058Z,28.43
2018-04-10T18:22:08.510Z,28.50
2018-04-10T18:24:35.968Z,29.13
2018-04-10T18:27:03.460Z,27.47
2018-04-10T18:29:30.916Z,29.80
2018-04-10T18:31:58.476Z,27.90
2018-04-10T18:34:25.943Z,28.90
2018-04-10T18:36:53.393Z,30.77
2018-04-10T18:39:20.947Z,30.20
2018-04-10T18:41:48.493Z,30.77
2018-04-10T18:44:16.045Z,29.33
2018-04-10T18:46:43.534Z,31.57
2018-04-10T18:49:11.786Z,30.13
2018-04-10T18:51:40.238Z,30.17
2018-04-10T18:54:07.916Z,31.77
2018-04-10T18:56:35.385Z,32.90
2018-04-10T18:59:02.998Z,33.00
2018-04-10T19:01:30.497Z,31.03
2018-04-10T19:03:58.061Z,33.67
2018-04-10T19:06:25.586Z,33.73
2018-04-10T19:08:53.070Z,35.03
2018-04-10T19:11:20.528Z,35.43
2018-04-10T19:13:48.083Z,35.77
2018-04-10T19:16:15.635Z,36.47
2018-04-10T19:18:44.009Z,37.90
2018-04-10T19:21:11.743Z,37.90
2018-04-10T19:23:39.208Z,37.90
2018-04-10T19:26:06.655Z,39.50
2018-04-10T19:28:34.113Z,38.50
2018-04-10T19:31:01.595Z,40.97
2018-04-10T19:33:29.056Z,41.67
2018-04-10T19:35:56.620Z,42.23
2018-04-10T19:38:24.073Z,42.43
2018-04-10T19:40:51.595Z,45.10
2018-04-10T19:43:19.067Z,45.03
2018-04-10T19:45:46.567Z,46.10
2018-04-10T19:48:14.083Z,48.43
2018-04-10T19:50:41.542Z,44.33
2018-04-10T19:53:09.123Z,47.90
2018-04-10T19:55:36.573Z,46.43
2018-04-10T19:58:04.150Z,48.00
2018-04-10T20:00:31.615Z,49.67
2018-04-10T20:02:59.858Z,51.87
2018-04-10T20:05:27.346Z,50.47
2018-04-10T20:07:55.616Z,54.47
2018-04-10T20:10:23.866Z,57.10
2018-04-10T20:12:51.363Z,40.47
2018-04-10T20:15:18.901Z,35.90
2018-04-10T20:17:46.485Z,29.00
2018-04-10T20:20:13.946Z,27.60
2018-04-10T20:22:41.435Z,26.43
2018-04-10T20:25:08.922Z,27.60
2018-04-10T20:27:37.252Z,27.63
2018-04-10T20:30:04.751Z,30.93
2018-04-10T20:32:32.234Z,30.30
2018-04-10T20:35:00.512Z,29.73
2018-04-10T20:37:28.062Z,33.20
2018-04-10T20:39:56.334Z,35.03
2018-04-10T20:42:24.644Z,35.90
2018-04-10T20:44:52.121Z,37.67
2018-04-10T20:47:19.672Z,34.87
2018-04-10T20:49:47.159Z,35.70
2018-04-10T20:52:14.730Z,37.13
2018-04-10T20:54:42.292Z,35.07
2018-04-10T20:57:10.543Z,29.60
2018-04-10T20:59:38.091Z,29.50
2018-04-10T21:02:05.650Z,27.87
2018-04-10T21:04:33.244Z,29.77
2018-04-10T21:07:01.558Z,29.20
2018-04-10T21:09:29.064Z,27.67
2018-04-10T21:11:57.326Z,26.77
2018-04-10T21:14:24.943Z,24.33
2018-04-10T21:16:52.466Z,25.23
2018-04-10T21:19:20.015Z,24.17
2018-04-10T21:21:47.485Z,22.77
2018-04-10T21:24:15.747Z,24.50
2018-04-10T21:26:43.996Z,25.43
2018-04-10T21:29:11.594Z,23.63
2018-04-10T21:31:39.849Z,24.80
2018-04-10T21:34:07.404Z,24.07
2018-04-10T21:36:35.704Z,22.37
2018-04-10T21:39:03.968Z,24.77
2018-04-10T21:41:32.328Z,23.60
2018-04-10T21:43:59.821Z,24.90
2018-04-10T21:46:27.355Z,26.13
2018-04-10T21:48:55.648Z,24.50
2018-04-10T21:51:23.199Z,24.60
2018-04-10T21:53:51.478Z,22.53
2018-04-10T21:56:19.709Z,23.87
2018-04-10T21:58:47.199Z,23.10
2018-04-10T22:01:15.553Z,22.07
2018-04-10T22:03:43.053Z,21.67
2018-04-10T22:06:10.526Z,21.57
2018-04-10T22:08:38.044Z,21.30
2018-04-10T22:11:06.312Z,21.50
2018-04-10T22:13:33.865Z,20.93
2018-04-10T22:16:01.384Z,20.20
2018-04-10T22:18:28.889Z,20.40
2018-04-10T22:20:57.296Z,20.70
2018-04-10T22:23:24.811Z,22.00
2018-04-10T22:25:52.388Z,20.13
2018-04-10T22:28:20.945Z,20.80
2018-04-10T22:30:48.424Z,22.33
2018-04-10T22:33:15.894Z,22.73
2018-04-10T22:35:43.513Z,21.73
2018-04-10T22:38:11.795Z,23.90
2018-04-10T22:40:39.308Z,22.27
2018-04-10T22:43:06.985Z,23.00
2018-04-10T22:45:35.247Z,22.67
2018-04-10T22:48:02.763Z,22.80
2018-04-10T22:50:30.283Z,23.73
2018-04-10T22:52:58.525Z,24.73
2018-04-10T22:55:26.025Z,25.70
2018-04-10T22:57:54.302Z,25.63
2018-04-10T23:00:54.148Z,24.97
2018-04-10T23:03:21.753Z,26.33
2018-04-10T23:05:50.374Z,24.33
2018-04-10T23:08:17.857Z,26.03
2018-04-10T23:10:45.349Z,24.93
2018-04-10T23:13:12.858Z,23.70
2018-04-10T23:15:40.344Z,24.23
2018-04-10T23:18:07.843Z,23.87
2018-04-10T23:20:35.400Z,24.50
2018-04-10T23:23:03.057Z,24.30
2018-04-10T23:25:30.666Z,23.60
2018-04-10T23:27:58.152Z,24.83
2018-04-10T23:30:25.712Z,24.53
2018-04-10T23:32:53.184Z,27.43
2018-04-10T23:35:20.779Z,24.93
2018-04-10T23:37:48.282Z,25.10
2018-04-10T23:40:15.769Z,24.47
2018-04-10T23:42:43.271Z,25.50
2018-04-10T23:45:10.777Z,25.87
2018-04-10T23:47:38.354Z,26.90
2018-04-10T23:50:06.616Z,24.87
2018-04-10T23:52:34.225Z,24.70
2018-04-10T23:55:01.735Z,25.73
2018-04-10T23:57:30.008Z,25.67
2018-04-10T23:59:57.565Z,25.90
